Time;durP1;ratioP1;P1;durP2;ratioP2;P2;SDS_P1;SDS_P2;PMS_P1;PMS_P2;Temp;Humidity;BMP_temperature;BMP_pressure;BME280_temperature;BME280_humidity;BME280_pressure;Samples;Min_cycle;Max_cycle;Signal;HPM_P1;HPM_P2
2022/05/14 00:01:17;;;;;;;17.00;9.38;;;17.20;99.90;;;;;;5099158;28;20020;-72
2022/05/14 00:03:44;;;;;;;15.60;9.48;;;17.10;99.90;;;;;;5099283;28;20032;-72
2022/05/14 00:06:12;;;;;;;13.02;8.40;;;17.10;99.90;;;;;;5099131;28;20099;-73
2022/05/14 00:08:39;;;;;;;15.40;10.48;;;17.10;99.90;;;;;;5097650;28;20031;-73
2022/05/14 00:13:50;;;;;;;13.32;8.98;;;17.00;99.90;;;;;;5098460;28;20051;-72
2022/05/14 00:16:17;;;;;;;14.13;9.85;;;16.90;99.90;;;;;;5086193;28;20591;-73
2022/05/14 00:18:43;;;;;;;11.32;9.48;;;16.90;99.90;;;;;;5097924;28;20157;-73
2022/05/14 00:21:10;;;;;;;13.65;9.90;;;16.80;99.90;;;;;;5098880;28;20036;-73
2022/05/14 00:23:36;;;;;;;12.82;9.60;;;16.80;99.90;;;;;;5098479;28;20077;-73
2022/05/14 00:26:02;;;;;;;17.25;10.73;;;16.80;99.90;;;;;;5098819;28;20440;-72
2022/05/14 00:28:28;;;;;;;12.32;9.32;;;16.70;99.90;;;;;;5097033;28;20107;-73
2022/05/14 00:30:55;;;;;;;15.30;11.50;;;16.70;99.90;;;;;;5097279;28;20533;-72
2022/05/14 00:33:21;;;;;;;15.50;9.80;;;16.60;99.90;;;;;;5097308;28;20039;-73
2022/05/14 00:35:47;;;;;;;11.80;9.13;;;16.60;99.90;;;;;;5098705;28;20495;-72
2022/05/14 00:38:13;;;;;;;12.63;9.20;;;16.60;99.90;;;;;;5097117;28;20062;-72
2022/05/14 00:40:42;;;;;;;14.35;9.77;;;16.50;99.90;;;;;;5098491;28;20081;-72
2022/05/14 00:43:09;;;;;;;10.90;9.30;;;16.50;99.90;;;;;;5097999;28;20388;-72
2022/05/14 00:45:39;;;;;;;9.95;8.95;;;16.50;99.90;;;;;;5094050;28;20051;-72
2022/05/14 00:48:06;;;;;;;10.80;9.13;;;16.50;99.90;;;;;;5097053;28;20031;-72
2022/05/14 00:50:40;;;;;;;21.42;10.82;;;16.40;99.90;;;;;;5098184;28;20032;-72
2022/05/14 00:53:40;;;;;;;15.80;10.93;;;16.40;99.90;;;;;;5098265;28;20027;-73
2022/05/14 00:56:10;;;;;;;16.00;10.13;;;16.40;99.90;;;;;;5053898;28;20105;-72
2022/05/14 00:58:47;;;;;;;12.60;10.77;;;16.30;99.90;;;;;;5097700;28;20101;-72
2022/05/14 01:01:13;;;;;;;12.52;9.90;;;16.30;99.90;;;;;;5097986;28;20056;-72
2022/05/14 01:03:39;;;;;;;12.95;10.80;;;16.20;99.90;;;;;;5096451;28;20028;-73
2022/05/14 01:06:08;;;;;;;12.15;10.50;;;16.20;99.90;;;;;;5097179;28;20061;-73
2022/05/14 01:08:35;;;;;;;13.63;11.00;;;16.20;99.90;;;;;;5097838;28;20024;-73
2022/05/14 01:11:02;;;;;;;15.32;10.77;;;16.20;99.90;;;;;;5096662;28;20031;-73
2022/05/14 01:13:28;;;;;;;14.55;10.75;;;16.10;99.90;;;;;;5097464;28;20028;-73
2022/05/14 01:16:00;;;;;;;14.23;11.10;;;16.10;99.90;;;;;;5087880;28;20020;-73
2022/05/14 01:18:29;;;;;;;13.70;9.82;;;16.10;99.90;;;;;;5093352;28;20027;-72
2022/05/14 01:21:02;;;;;;;17.05;11.05;;;16.10;99.90;;;;;;5096581;28;20111;-72
2022/05/14 01:26:36;;;;;;;14.70;10.90;;;16.10;99.90;;;;;;5097768;28;20027;-73
2022/05/14 01:29:13;;;;;;;17.98;10.57;;;16.10;99.90;;;;;;5097272;28;20080;-73
2022/05/14 01:31:40;;;;;;;14.20;10.15;;;16.00;99.90;;;;;;5096139;28;20048;-72
2022/05/14 01:34:16;;;;;;;14.48;10.60;;;16.00;99.90;;;;;;5096394;28;20449;-73
2022/05/14 01:36:43;;;;;;;13.55;10.88;;;15.90;99.90;;;;;;5097664;28;20031;-72
2022/05/14 01:39:09;;;;;;;15.52;10.13;;;15.90;99.90;;;;;;5097418;28;20112;-72
2022/05/14 01:41:36;;;;;;;13.02;9.85;;;15.90;99.90;;;;;;5097517;28;20020;-72
2022/05/14 01:44:01;;;;;;;11.10;9.77;;;15.90;99.90;;;;;;5095554;28;20054;-73
2022/05/14 01:46:27;;;;;;;17.92;11.35;;;15.90;99.90;;;;;;5095959;28;20508;-72
2022/05/14 01:48:53;;;;;;;18.17;11.20;;;15.90;99.90;;;;;;5095904;28;20058;-72
2022/05/14 01:51:20;;;;;;;14.60;10.25;;;15.80;99.90;;;;;;5095903;28;20118;-72
2022/05/14 01:53:46;;;;;;;12.05;10.80;;;15.70;99.90;;;;;;5097205;28;20465;-72
2022/05/14 01:56:12;;;;;;;12.82;10.50;;;15.70;99.90;;;;;;5097160;28;20035;-72
2022/05/14 01:58:38;;;;;;;13.30;10.20;;;15.70;99.90;;;;;;5095574;28;20507;-73
2022/05/14 02:01:16;;;;;;;18.00;11.15;;;15.70;99.90;;;;;;5096016;28;20024;-72
2022/05/14 02:03:45;;;;;;;15.55;10.63;;;15.70;99.90;;;;;;5095773;28;20411;-72
2022/05/14 02:06:14;;;;;;;16.33;10.98;;;15.60;99.90;;;;;;5097223;28;20552;-72
2022/05/14 02:08:40;;;;;;;18.20;11.95;;;15.60;99.90;;;;;;5095733;28;20028;-72
2022/05/14 02:11:08;;;;;;;12.32;10.75;;;15.60;99.90;;;;;;5097182;28;20814;-73
2022/05/14 02:13:35;;;;;;;16.73;10.70;;;15.50;99.90;;;;;;5096984;28;20035;-73
2022/05/14 02:16:01;;;;;;;13.13;10.73;;;15.50;99.90;;;;;;5087284;28;20026;-73
2022/05/14 02:18:27;;;;;;;13.93;9.88;;;15.40;99.90;;;;;;5096981;28;20512;-72
2022/05/14 02:20:53;;;;;;;15.98;10.95;;;15.40;99.90;;;;;;5099865;28;20115;-73
2022/05/14 02:23:20;;;;;;;13.65;11.40;;;15.30;99.90;;;;;;5101206;28;20035;-72
2022/05/14 02:25:47;;;;;;;16.80;11.55;;;15.30;99.90;;;;;;5099837;28;20381;-72
2022/05/14 02:28:13;;;;;;;17.00;11.27;;;15.20;99.90;;;;;;5100492;28;20028;-72
2022/05/14 02:30:39;;;;;;;17.52;12.02;;;15.20;99.90;;;;;;5099573;28;20028;-73
2022/05/14 02:33:05;;;;;;;15.82;11.57;;;15.20;99.90;;;;;;5099658;28;20111;-72
2022/05/14 02:35:31;;;;;;;13.45;11.15;;;15.20;99.90;;;;;;5100982;28;20101;-72
2022/05/14 02:37:57;;;;;;;17.05;12.75;;;15.20;99.90;;;;;;5100694;28;20801;-73
2022/05/14 02:40:23;;;;;;;12.73;11.38;;;15.20;99.90;;;;;;5100818;28;20024;-73
2022/05/14 02:42:49;;;;;;;18.00;11.20;;;15.20;99.90;;;;;;5100258;28;20035;-72
2022/05/14 02:45:15;;;;;;;15.27;12.05;;;15.20;99.90;;;;;;5096400;28;20442;-73
2022/05/14 02:47:41;;;;;;;13.63;11.50;;;15.20;99.90;;;;;;5100775;28;20028;-72
2022/05/14 02:50:09;;;;;;;17.83;12.27;;;15.10;99.90;;;;;;5100358;28;20048;-72
2022/05/14 02:52:35;;;;;;;16.00;11.38;;;15.20;99.90;;;;;;5100369;28;20368;-72
2022/05/14 02:55:01;;;;;;;13.25;10.65;;;15.10;99.90;;;;;;5099209;28;20483;-73
2022/05/14 02:57:27;;;;;;;13.93;10.25;;;15.10;99.90;;;;;;5098945;28;20028;-72
2022/05/14 02:59:53;;;;;;;15.35;10.88;;;15.00;99.90;;;;;;5099993;28;20039;-73
2022/05/14 03:02:19;;;;;;;15.77;11.70;;;15.00;99.90;;;;;;5098832;28;20107;-73
2022/05/14 03:04:47;;;;;;;15.00;11.75;;;15.00;99.90;;;;;;5100539;28;20028;-72
2022/05/14 03:07:13;;;;;;;14.80;12.50;;;14.90;99.90;;;;;;5100075;28;20027;-73
2022/05/14 03:09:40;;;;;;;16.30;11.82;;;14.90;99.90;;;;;;5098890;28;20024;-73
2022/05/14 03:12:07;;;;;;;17.10;12.88;;;14.90;99.90;;;;;;5099996;28;20058;-73
2022/05/14 03:14:33;;;;;;;14.18;11.88;;;14.90;99.90;;;;;;5099838;28;20016;-73
2022/05/14 03:16:59;;;;;;;14.00;12.15;;;14.90;99.90;;;;;;5086247;28;20028;-73
2022/05/14 03:19:25;;;;;;;15.20;11.90;;;14.90;99.90;;;;;;5098907;28;20020;-73
2022/05/14 03:21:52;;;;;;;17.27;12.70;;;14.80;99.90;;;;;;5086473;28;20403;-73
2022/05/14 03:24:19;;;;;;;15.13;12.05;;;14.80;99.90;;;;;;5098671;28;20024;-73
2022/05/14 03:26:45;;;;;;;14.57;12.15;;;14.80;99.90;;;;;;5099775;28;20480;-73
2022/05/14 03:29:11;;;;;;;14.77;12.05;;;14.80;99.90;;;;;;5098806;28;20052;-73
2022/05/14 03:31:40;;;;;;;17.30;12.32;;;14.80;99.90;;;;;;5099845;28;20041;-73
2022/05/14 03:34:06;;;;;;;16.15;11.80;;;14.70;99.90;;;;;;5098628;28;20472;-73
2022/05/14 03:36:33;;;;;;;15.23;12.35;;;14.70;99.90;;;;;;5099652;28;20020;-73
2022/05/14 03:39:00;;;;;;;15.23;12.55;;;14.60;99.90;;;;;;5099753;28;20024;-73
2022/05/14 03:41:28;;;;;;;14.05;11.35;;;14.70;99.90;;;;;;5099311;28;20020;-73
2022/05/14 03:43:54;;;;;;;15.13;12.48;;;14.60;99.90;;;;;;5099241;28;20487;-73
2022/05/14 03:46:20;;;;;;;13.65;11.90;;;14.60;99.90;;;;;;5072454;28;20036;-73
2022/05/14 03:48:46;;;;;;;17.38;12.20;;;14.60;99.90;;;;;;5099497;28;20063;-73
2022/05/14 03:51:12;;;;;;;21.42;12.25;;;14.60;99.90;;;;;;5097997;28;20032;-73
2022/05/14 03:53:38;;;;;;;13.02;11.70;;;14.50;99.90;;;;;;5099197;28;20021;-73
2022/05/14 03:56:05;;;;;;;19.33;12.30;;;14.50;99.90;;;;;;5099145;28;20032;-73
2022/05/14 03:58:32;;;;;;;15.05;12.55;;;14.50;99.90;;;;;;5097726;28;20111;-73
2022/05/14 04:00:58;;;;;;;17.48;13.18;;;14.50;99.90;;;;;;5099186;28;20138;-73
2022/05/14 04:03:24;;;;;;;14.32;12.82;;;14.40;99.90;;;;;;5097771;28;20057;-73
2022/05/14 04:05:50;;;;;;;17.27;13.35;;;14.40;99.90;;;;;;5099184;28;20024;-73
2022/05/14 04:08:17;;;;;;;18.48;13.93;;;14.40;99.90;;;;;;5098859;28;20028;-73
2022/05/14 04:10:44;;;;;;;18.45;12.95;;;14.30;99.90;;;;;;5099116;28;20024;-73
2022/05/14 04:13:11;;;;;;;16.08;13.60;;;14.40;99.90;;;;;;5098690;28;20365;-73
2022/05/14 04:15:38;;;;;;;18.27;13.73;;;14.40;99.90;;;;;;5091456;28;20023;-73
2022/05/14 04:18:04;;;;;;;15.85;12.25;;;14.30;99.90;;;;;;5091122;28;20467;-73
2022/05/14 04:20:30;;;;;;;18.23;12.50;;;14.30;99.90;;;;;;5098940;28;20020;-73
2022/05/14 04:22:57;;;;;;;16.60;13.05;;;14.30;99.90;;;;;;5098668;28;20027;-73
2022/05/14 04:25:23;;;;;;;19.90;13.02;;;14.20;99.90;;;;;;5098799;28;20107;-73
2022/05/14 04:27:49;;;;;;;15.55;11.60;;;14.20;99.90;;;;;;5098601;28;20466;-73
2022/05/14 04:30:17;;;;;;;16.17;13.27;;;14.20;99.90;;;;;;5097123;28;20169;-73
2022/05/14 04:32:43;;;;;;;13.25;11.85;;;14.20;99.90;;;;;;5098382;28;20130;-73
2022/05/14 04:35:11;;;;;;;18.00;13.15;;;14.20;99.90;;;;;;5097176;28;20032;-73
2022/05/14 04:37:37;;;;;;;14.13;11.63;;;14.20;99.90;;;;;;5098375;28;20016;-73
2022/05/14 04:40:08;;;;;;;15.00;12.95;;;14.10;99.90;;;;;;5097370;28;20361;-73
2022/05/14 04:42:33;;;;;;;;;;;14.20;99.90;;;;;;5096948;28;20024;-73
2022/05/14 04:44:59;;;;;;;14.55;12.80;;;14.20;99.90;;;;;;5097915;28;20359;-73
2022/05/14 04:47:25;;;;;;;18.20;14.15;;;14.20;99.90;;;;;;5096889;28;20024;-73
2022/05/14 04:49:51;;;;;;;17.00;12.88;;;14.30;99.90;;;;;;5096980;28;20016;-73
2022/05/14 04:52:17;;;;;;;17.17;13.60;;;14.30;99.90;;;;;;5083667;28;20484;-73
2022/05/14 04:54:43;;;;;;;15.60;13.45;;;14.30;99.90;;;;;;5098179;28;20020;-73
2022/05/14 04:57:09;;;;;;;14.40;11.98;;;14.40;99.90;;;;;;5097995;28;20031;-73
2022/05/14 04:59:36;;;;;;;15.50;11.98;;;14.40;99.90;;;;;;5096657;28;20512;-73
2022/05/14 05:04:47;;;;;;;16.10;12.55;;;14.40;99.90;;;;;;5097878;28;20030;-73
2022/05/14 05:07:13;;;;;;;17.35;11.80;;;14.50;99.90;;;;;;5097717;28;20480;-73
2022/05/14 05:09:39;;;;;;;16.20;13.02;;;14.50;99.90;;;;;;5096784;28;20079;-73
2022/05/14 05:12:05;;;;;;;21.83;12.35;;;14.60;99.90;;;;;;5078890;28;20040;-73
2022/05/14 05:14:31;;;;;;;13.13;11.73;;;14.70;99.90;;;;;;5088816;28;20074;-73
2022/05/14 05:16:57;;;;;;;15.75;11.98;;;14.80;99.90;;;;;;5082307;28;20028;-73
2022/05/14 05:19:24;;;;;;;15.18;11.13;;;14.90;99.90;;;;;;5096453;28;20503;-73
2022/05/14 05:21:50;;;;;;;12.35;10.55;;;14.90;99.90;;;;;;5089390;28;20058;-73
2022/05/14 05:24:16;;;;;;;17.17;12.02;;;15.00;99.90;;;;;;5097693;28;20024;-73
2022/05/14 05:26:42;;;;;;;12.18;10.93;;;15.00;99.90;;;;;;5090674;28;20029;-73
2022/05/14 05:29:09;;;;;;;13.38;11.18;;;15.10;99.90;;;;;;5076830;28;20032;-73
2022/05/14 05:31:35;;;;;;;12.27;10.98;;;15.20;99.90;;;;;;5093852;28;20028;-73
2022/05/14 05:34:02;;;;;;;13.70;11.80;;;15.30;99.90;;;;;;5092528;28;20021;-73
2022/05/14 05:36:28;;;;;;;16.52;12.38;;;15.40;99.90;;;;;;5087538;28;20039;-73
2022/05/14 05:38:54;;;;;;;16.88;11.05;;;15.50;99.90;;;;;;5096080;28;20027;-73
2022/05/14 05:41:21;;;;;;;15.98;12.13;;;15.60;99.90;;;;;;5086769;28;20031;-73
2022/05/14 05:43:47;;;;;;;15.57;11.48;;;15.60;99.90;;;;;;5095597;28;20016;-73
2022/05/14 05:46:14;;;;;;;13.75;11.60;;;15.70;99.90;;;;;;5097135;28;20093;-73
2022/05/14 05:48:41;;;;;;;12.52;11.20;;;15.80;99.90;;;;;;5088365;28;20059;-73
2022/05/14 05:51:07;;;;;;;15.40;11.63;;;15.90;99.90;;;;;;5095034;28;20024;-73
2022/05/14 05:59:03;;;;;;;17.48;11.88;;;16.10;99.90;;;;;;5080173;28;20561;-73
2022/05/14 06:01:30;;;;;;;23.50;13.45;;;16.20;99.90;;;;;;5078951;28;20074;-73
2022/05/14 06:03:55;;;;;;;21.17;13.48;;;16.30;99.90;;;;;;5077831;28;20013;-73
2022/05/14 06:06:21;;;;;;;15.55;11.68;;;16.40;99.90;;;;;;5077960;28;20551;-73
2022/05/14 06:08:48;;;;;;;15.52;12.15;;;16.60;99.90;;;;;;5093809;28;20020;-73
2022/05/14 06:11:14;;;;;;;14.45;12.95;;;16.70;99.90;;;;;;5095689;28;20028;-73
2022/05/14 06:13:42;;;;;;;18.90;13.07;;;16.80;99.90;;;;;;5092320;28;20025;-73
2022/05/14 06:16:09;;;;;;;17.40;13.18;;;17.00;99.90;;;;;;5083961;28;20029;-73
2022/05/14 06:18:35;;;;;;;14.65;12.00;;;17.10;99.90;;;;;;5093931;28;20024;-72
2022/05/14 06:21:01;;;;;;;17.63;12.35;;;17.10;99.90;;;;;;5096986;28;20034;-72
2022/05/14 06:23:27;;;;;;;16.42;12.82;;;17.20;99.90;;;;;;5096918;28;20096;-73
2022/05/14 06:25:53;;;;;;;14.38;12.85;;;17.40;99.90;;;;;;5095660;28;20077;-73
2022/05/14 06:28:18;;;;;;;15.90;12.38;;;17.50;99.90;;;;;;5096442;28;20147;-73
2022/05/14 06:30:45;;;;;;;16.50;13.48;;;17.60;99.90;;;;;;5094998;28;20054;-73
2022/05/14 06:33:12;;;;;;;16.40;13.45;;;17.70;99.90;;;;;;5096145;28;20058;-73
2022/05/14 06:35:39;;;;;;;16.05;13.43;;;17.80;99.90;;;;;;5088473;28;20031;-73
2022/05/14 06:38:06;;;;;;;18.30;12.32;;;17.90;99.90;;;;;;5078594;28;20056;-73
2022/05/14 06:40:35;;;;;;;18.75;12.93;;;18.00;99.90;;;;;;5093927;28;20040;-73
2022/05/14 06:43:01;;;;;;;17.73;12.52;;;18.10;99.90;;;;;;5086964;28;20024;-73
2022/05/14 06:45:27;;;;;;;17.58;13.90;;;18.20;99.90;;;;;;5096567;28;20047;-73
2022/05/14 06:47:53;;;;;;;20.00;13.52;;;18.30;99.90;;;;;;5096572;28;20016;-73
2022/05/14 06:50:19;;;;;;;17.58;13.27;;;18.40;99.90;;;;;;5096832;28;20031;-73
2022/05/14 06:52:48;;;;;;;16.33;13.48;;;18.40;99.90;;;;;;5096632;28;20034;-73
2022/05/14 06:55:19;;;;;;;18.73;12.50;;;18.50;99.90;;;;;;5096777;28;20063;-73
2022/05/14 06:57:46;;;;;;;20.50;13.43;;;18.60;99.90;;;;;;5095103;28;20024;-73
2022/05/14 07:00:12;;;;;;;19.58;13.57;;;18.70;99.90;;;;;;5096475;28;20039;-73
2022/05/14 07:02:39;;;;;;;14.88;13.38;;;18.70;99.90;;;;;;5096958;28;20020;-73
2022/05/14 07:07:50;;;;;;;19.52;13.75;;;18.90;99.90;;;;;;5098101;28;20093;-72
2022/05/14 07:10:16;;;;;;;18.50;13.20;;;18.90;99.90;;;;;;5098739;28;20032;-73
2022/05/14 07:12:41;;;;;;;18.88;13.40;;;19.00;99.90;;;;;;5093637;28;20089;-73
2022/05/14 07:15:09;;;;;;;19.40;14.00;;;19.10;99.90;;;;;;5081679;28;20024;-73
2022/05/14 07:17:34;;;;;;;17.63;13.55;;;19.20;99.90;;;;;;5090188;28;20032;-72
2022/05/14 07:20:00;;;;;;;18.00;14.93;;;19.30;99.90;;;;;;5099872;28;20491;-72
2022/05/14 07:22:26;;;;;;;15.95;13.27;;;19.30;99.90;;;;;;5099045;28;20017;-73
2022/05/14 07:24:52;;;;;;;17.65;14.23;;;19.40;99.90;;;;;;5099904;28;20016;-72
2022/05/14 07:27:18;;;;;;;19.38;13.80;;;19.50;99.90;;;;;;5098460;28;20400;-72
2022/05/14 07:29:45;;;;;;;19.33;12.05;;;19.60;99.90;;;;;;5099740;28;20051;-73
2022/05/14 07:32:16;;;;;;;12.55;11.25;;;19.70;99.90;;;;;;5098695;28;20051;-72
2022/05/14 07:34:42;;;;;;;19.45;12.23;;;19.90;99.90;;;;;;5099638;28;20039;-73
2022/05/14 07:37:39;;;;;;;14.02;12.50;;;19.90;99.90;;;;;;5099890;28;20059;-72
2022/05/14 07:40:11;;;;;;;18.52;11.90;;;20.00;99.90;;;;;;5092460;28;20178;-73
2022/05/14 07:42:46;;;;;;;21.52;11.85;;;20.00;99.90;;;;;;5094915;28;20047;-73
2022/05/14 07:45:18;;;;;;;22.10;10.48;;;20.20;99.90;;;;;;5097683;28;20047;-70
2022/05/14 07:47:45;;;;;;;12.88;11.57;;;20.30;99.90;;;;;;5095454;28;20393;-70
2022/05/14 07:50:12;;;;;;;20.08;11.45;;;20.40;99.90;;;;;;5099573;28;20020;-72
2022/05/14 07:52:39;;;;;;;14.15;10.05;;;20.60;99.90;;;;;;5099602;28;20111;-73
2022/05/14 07:55:05;;;;;;;12.18;8.82;;;20.70;99.90;;;;;;5099302;28;20098;-72
2022/05/14 07:57:31;;;;;;;13.82;9.23;;;20.90;99.90;;;;;;5097860;28;20039;-73
2022/05/14 07:59:57;;;;;;;13.93;9.65;;;21.10;99.90;;;;;;5099207;28;20020;-73
2022/05/14 08:02:26;;;;;;;14.82;9.13;;;21.30;99.90;;;;;;5099063;28;20085;-73
2022/05/14 08:04:53;;;;;;;11.23;8.55;;;21.40;99.90;;;;;;5096141;28;20021;-73
2022/05/14 08:07:19;;;;;;;12.98;9.18;;;21.60;99.90;;;;;;5080751;28;20020;-73
2022/05/14 08:09:45;;;;;;;12.88;9.48;;;21.70;99.90;;;;;;5090827;28;20023;-73
2022/05/14 08:12:11;;;;;;;20.27;9.57;;;21.80;99.90;;;;;;5097868;28;20031;-73
2022/05/14 08:14:40;;;;;;;13.63;9.18;;;21.80;99.90;;;;;;5097254;28;20488;-73
2022/05/14 08:17:09;;;;;;;9.98;8.63;;;21.80;99.90;;;;;;5085289;28;20048;-72
2022/05/14 08:19:35;;;;;;;17.40;8.90;;;21.90;99.90;;;;;;5099017;28;20464;-72
2022/05/14 08:24:45;;;;;;;9.15;7.50;;;22.20;99.90;;;;;;5099016;28;20518;-72
2022/05/14 08:27:12;;;;;;;10.75;8.38;;;22.40;99.90;;;;;;5094069;28;20183;-72
2022/05/14 08:29:38;;;;;;;13.95;8.75;;;22.50;99.90;;;;;;5094490;28;20068;-72
2022/05/14 08:32:04;;;;;;;10.45;8.38;;;22.50;99.90;;;;;;5098514;28;20056;-72
2022/05/14 08:34:31;;;;;;;8.95;8.05;;;22.60;99.90;;;;;;5098489;28;20034;-73
2022/05/14 08:36:57;;;;;;;10.38;7.43;;;22.70;99.90;;;;;;5098672;28;20845;-72
2022/05/14 08:39:24;;;;;;;10.75;7.95;;;22.80;99.90;;;;;;5098417;28;20032;-72
2022/05/14 08:41:52;;;;;;;18.85;8.35;;;23.00;99.90;;;;;;5098465;28;20028;-72
2022/05/14 08:44:23;;;;;;;12.30;7.88;;;23.00;99.90;;;;;;5087683;28;20023;-73
2022/05/14 08:46:58;;;;;;;9.07;7.25;;;23.10;99.90;;;;;;5098299;28;20162;-72
2022/05/14 08:49:44;;;;;;;9.35;7.97;;;23.20;99.90;;;;;;5094950;28;20020;-72
2022/05/14 08:52:16;;;;;;;11.90;7.45;;;23.40;99.90;;;;;;5091217;28;20021;-72
2022/05/14 08:54:42;;;;;;;8.80;7.40;;;23.60;99.90;;;;;;5085375;28;20031;-72
2022/05/14 08:57:12;;;;;;;10.48;7.20;;;23.70;99.90;;;;;;5098043;28;20024;-72
2022/05/14 08:59:55;;;;;;;11.20;7.72;;;23.70;99.90;;;;;;5098040;28;20024;-73
2022/05/14 09:02:30;;;;;;;10.07;7.50;;;23.60;99.90;;;;;;5098028;28;20039;-72
2022/05/14 09:05:35;;;;;;;9.85;7.07;;;23.70;99.90;;;;;;5098206;28;20432;-73
2022/05/14 09:08:02;;;;;;;8.13;6.70;;;23.90;99.90;;;;;;5098011;28;20103;-72
2022/05/14 09:10:33;;;;;;;8.95;5.85;;;24.00;99.90;;;;;;5097891;28;20177;-72
2022/05/14 09:13:16;;;;;;;10.40;7.35;;;24.10;99.90;;;;;;5097714;28;20024;-73
2022/05/14 09:15:49;;;;;;;9.43;7.63;;;24.30;99.90;;;;;;5088429;28;20115;-72
2022/05/14 09:18:48;;;;;;;11.38;7.20;;;24.40;99.90;;;;;;5093268;28;20024;-73
2022/05/14 09:21:30;;;;;;;9.48;7.03;;;24.50;99.90;;;;;;5064190;28;20075;-72
2022/05/14 09:24:16;;;;;;;7.53;6.68;;;24.80;99.90;;;;;;5097805;28;20069;-73
2022/05/14 09:26:43;;;;;;;12.45;6.60;;;24.90;99.90;;;;;;5095674;28;20115;-72
2022/05/14 09:29:32;;;;;;;8.50;6.03;;;25.10;99.90;;;;;;5097459;28;20384;-73
2022/05/14 09:32:00;;;;;;;11.65;6.15;;;25.10;99.90;;;;;;5097659;28;20020;-73
2022/05/14 09:34:31;;;;;;;8.10;5.13;;;25.30;99.90;;;;;;5096153;28;20012;-72
2022/05/14 09:37:11;;;;;;;8.90;4.43;;;25.30;99.90;;;;;;5096370;28;20028;-73
2022/05/14 09:39:39;;;;;;;7.10;3.80;;;25.40;99.90;;;;;;5097513;28;20024;-73
2022/05/14 09:42:21;;;;;;;8.18;4.55;;;25.40;99.90;;;;;;5097163;28;20031;-73
2022/05/14 09:44:49;;;;;;;7.07;4.43;;;25.40;99.90;;;;;;5096769;28;20020;-73
2022/05/14 09:47:28;;;;;;;8.98;5.28;;;25.30;99.90;;;;;;5095643;28;20027;-73
2022/05/14 09:49:59;;;;;;;6.22;4.50;;;25.30;99.90;;;;;;5097464;28;20379;-73
2022/05/14 09:52:26;;;;;;;;;;;25.40;99.90;;;;;;5097655;28;20032;-73
2022/05/14 09:54:53;;;;;;;6.78;4.45;;;25.50;99.90;;;;;;5097128;28;19954;-73
2022/05/14 09:57:48;;;;;;;8.15;4.85;;;25.60;99.90;;;;;;5095526;28;20042;-73
2022/05/14 10:00:18;;;;;;;7.57;3.95;;;25.80;99.90;;;;;;5082548;28;20040;-72
2022/05/14 10:02:44;;;;;;;10.43;4.57;;;25.80;99.90;;;;;;5096376;28;20020;-73
2022/05/14 10:05:34;;;;;;;10.68;4.45;;;25.80;99.90;;;;;;5086550;28;20033;-73
2022/05/14 10:08:20;;;;;;;6.53;4.60;;;26.00;99.90;;;;;;5097283;28;20017;-72
2022/05/14 10:10:55;;;;;;;8.43;4.47;;;26.30;99.90;;;;;;5095889;28;20028;-73
2022/05/14 10:13:41;;;;;;;9.48;4.32;;;26.40;99.90;;;;;;5095520;28;20073;-74
2022/05/14 10:16:07;;;;;;;6.30;3.90;;;26.50;99.90;;;;;;5085700;28;20032;-72
2022/05/14 10:18:51;;;;;;;10.90;4.47;;;26.50;99.90;;;;;;5093692;28;20028;-72
2022/05/14 10:21:36;;;;;;;9.05;4.57;;;26.50;99.90;;;;;;5095851;28;20065;-73
2022/05/14 10:27:31;;;;;;;11.10;4.72;;;26.30;99.90;;;;;;5097094;28;20031;-73
2022/05/14 10:30:25;;;;;;;9.15;5.18;;;26.20;99.90;;;;;;5096813;28;20023;-72
2022/05/14 10:33:02;;;;;;;7.90;3.67;;;26.40;99.90;;;;;;5095558;28;20028;-73
2022/05/14 10:35:46;;;;;;;5.90;4.10;;;26.40;99.90;;;;;;5097091;28;20023;-73
2022/05/14 10:38:27;;;;;;;6.35;4.63;;;26.60;99.90;;;;;;5098196;28;20021;-73
2022/05/14 10:41:02;;;;;;;16.23;5.03;;;26.50;99.90;;;;;;5099290;28;20111;-73
2022/05/14 10:43:31;;;;;;;6.03;4.60;;;26.70;99.90;;;;;;5099232;28;20052;-73
2022/05/14 10:45:59;;;;;;;7.82;3.92;;;26.90;99.90;;;;;;5100630;28;20048;-73
2022/05/14 10:48:42;;;;;;;6.57;3.97;;;27.00;99.90;;;;;;5099491;28;20032;-74
2022/05/14 10:51:12;;;;;;;7.13;3.47;;;27.20;99.90;;;;;;5100506;28;20058;-73
2022/05/14 10:53:41;;;;;;;5.82;3.58;;;27.30;99.90;;;;;;5099351;28;20032;-73
2022/05/14 10:56:09;;;;;;;4.30;3.17;;;27.20;99.90;;;;;;5100494;28;20027;-73
2022/05/14 10:58:58;;;;;;;6.65;3.92;;;27.20;99.90;;;;;;5098885;28;20408;-74
2022/05/14 11:01:35;;;;;;;7.65;3.80;;;27.10;99.90;;;;;;5093767;28;20051;-73
2022/05/14 11:04:17;;;;;;;9.00;3.90;;;27.10;99.90;;;;;;5098968;28;20024;-73
2022/05/14 11:06:59;;;;;;;8.70;3.63;;;27.20;99.90;;;;;;5086701;28;20028;-73
2022/05/14 11:09:30;;;;;;;5.90;4.10;;;27.30;99.90;;;;;;5100461;28;20020;-73
2022/05/14 11:12:00;;;;;;;5.40;3.88;;;27.20;99.90;;;;;;5098829;28;20024;-73
2022/05/14 11:14:41;;;;;;;8.30;4.20;;;27.10;99.90;;;;;;5100060;28;20035;-72
2022/05/14 11:17:26;;;;;;;4.75;3.70;;;27.10;99.90;;;;;;5086478;28;20066;-73
2022/05/14 11:20:07;;;;;;;6.25;3.78;;;27.30;99.90;;;;;;5098628;28;20035;-73
2022/05/14 11:22:37;;;;;;;9.32;4.05;;;27.50;99.90;;;;;;5098861;28;20028;-73
2022/05/14 11:25:24;;;;;;;12.80;4.05;;;27.60;99.90;;;;;;5099932;28;20027;-73
2022/05/14 11:28:18;;;;;;;6.85;4.40;;;27.80;99.90;;;;;;5099679;28;20099;-73
2022/05/14 11:30:51;;;;;;;6.78;3.90;;;27.90;99.90;;;;;;5098525;28;20020;-73
2022/05/14 11:33:26;;;;;;;10.30;4.80;;;28.00;99.90;;;;;;5099753;28;20111;-73
2022/05/14 11:36:04;;;;;;;8.70;4.22;;;28.10;99.90;;;;;;5098465;28;20028;-73
2022/05/14 11:38:37;;;;;;;7.10;4.28;;;28.10;99.90;;;;;;5099936;28;20494;-73
2022/05/14 11:41:14;;;;;;;5.75;3.45;;;28.10;99.90;;;;;;5092640;28;20067;-70
2022/05/14 11:43:43;;;;;;;9.32;4.35;;;28.10;99.90;;;;;;5099514;28;20016;-73
2022/05/14 11:46:29;;;;;;;5.75;3.53;;;28.20;99.70;;;;;;5097977;28;20512;-73
2022/05/14 11:49:29;;;;;;;7.75;3.78;;;28.40;97.60;;;;;;5098853;28;20026;-73
2022/05/14 11:52:22;;;;;;;7.50;3.77;;;28.30;98.70;;;;;;5098273;28;20399;-70
2022/05/14 11:55:06;;;;;;;9.38;3.58;;;28.50;98.90;;;;;;5098107;28;20047;-70
2022/05/14 11:57:36;;;;;;;6.45;3.08;;;28.70;98.40;;;;;;5099108;28;20024;-70
2022/05/14 12:00:17;;;;;;;8.95;3.83;;;28.90;98.20;;;;;;5099226;28;20024;-70
2022/05/14 12:02:47;;;;;;;7.03;3.97;;;28.90;99.00;;;;;;5097947;28;20104;-70
2022/05/14 12:05:24;;;;;;;5.28;3.40;;;29.00;96.70;;;;;;5099459;28;20468;-71
2022/05/14 12:08:21;;;;;;;10.07;4.28;;;29.00;94.30;;;;;;5099161;28;20416;-71
2022/05/14 12:10:58;;;;;;;6.40;3.35;;;29.00;95.90;;;;;;5099297;28;20024;-71
2022/05/14 12:13:56;;;;;;;6.95;3.15;;;29.00;94.90;;;;;;5097401;28;20035;-71
2022/05/14 12:16:33;;;;;;;10.85;3.25;;;29.10;94.90;;;;;;5085443;28;20107;-71
2022/05/14 12:19:01;;;;;;;6.00;3.00;;;29.00;94.00;;;;;;5101492;28;20024;-70
2022/05/14 12:21:27;;;;;;;7.55;3.83;;;29.00;92.70;;;;;;5099063;28;20034;-70
2022/05/14 12:23:53;;;;;;;9.35;3.83;;;28.90;93.40;;;;;;5098940;28;20013;-71
2022/05/14 12:26:28;;;;;;;5.25;2.97;;;29.00;93.80;;;;;;5098791;28;20464;-70
2022/05/14 12:28:58;;;;;;;7.07;2.92;;;29.20;94.40;;;;;;5098537;28;20472;-70
2022/05/14 12:34:13;;;;;;;7.97;2.83;;;29.20;90.70;;;;;;5098629;28;20077;-70
2022/05/14 12:36:53;;;;;;;7.93;2.95;;;29.30;90.20;;;;;;5098727;28;20027;-71
2022/05/14 12:39:23;;;;;;;9.50;2.77;;;29.20;91.60;;;;;;5097291;28;20032;-70
2022/05/14 12:41:54;;;;;;;5.65;2.67;;;29.20;92.50;;;;;;5098817;28;20024;-70
2022/05/14 12:44:29;;;;;;;9.63;3.47;;;29.40;91.80;;;;;;5096604;28;20165;-70
2022/05/14 12:46:58;;;;;;;5.63;3.30;;;29.40;90.50;;;;;;5096961;28;20052;-70
2022/05/14 12:49:34;;;;;;;6.20;2.85;;;29.40;91.20;;;;;;5098327;28;20430;-70
2022/05/14 12:52:11;;;;;;;12.07;3.83;;;29.50;92.20;;;;;;5096850;28;20030;-70
2022/05/14 12:54:49;;;;;;;4.63;2.30;;;29.70;91.10;;;;;;5098179;28;20027;-70
2022/05/14 12:57:16;;;;;;;8.65;3.05;;;29.80;91.90;;;;;;5097874;28;20056;-70
2022/05/14 12:59:42;;;;;;;12.52;2.95;;;29.90;87.70;;;;;;5098173;28;20051;-70
2022/05/14 13:02:18;;;;;;;8.85;2.47;;;29.80;89.60;;;;;;5097104;28;20037;-71
2022/05/14 13:05:29;;;;;;;4.97;2.58;;;29.90;89.60;;;;;;5096729;28;20023;-70
2022/05/14 13:08:02;;;;;;;6.30;3.42;;;30.00;85.50;;;;;;5074970;28;20036;-69
2022/05/14 13:10:30;;;;;;;7.35;3.17;;;30.20;84.50;;;;;;5098003;28;20034;-70
2022/05/14 13:13:00;;;;;;;6.60;2.97;;;30.30;83.00;;;;;;5097913;28;20083;-70
2022/05/14 13:15:39;;;;;;;4.60;2.65;;;30.40;86.00;;;;;;5091886;28;20024;-69
2022/05/14 13:18:23;;;;;;;6.45;2.78;;;30.30;81.60;;;;;;5081869;28;20056;-70